sensor_id;sensor_type;location;lat;lon;timestamp;pressure;altitude;pressure_sealevel;temperature;humidity
19674;BME280;9986;50.610;7.230;2023-12-14T00:00:59;2030.38;;;6.01;100.00
19674;BME280;9986;50.610;7.230;2023-12-14T00:08:49;-2842.02;;;6.11;100.00
19674;BME280;9986;50.610;7.230;2023-12-14T00:13:59;-2679.53;;;6.16;100.00
19674;BME280;9986;50.610;7.230;2023-12-14T00:21:54;-568.13;;;6.18;100.00
19674;BME280;9986;50.610;7.230;2023-12-14T00:29:44;3496.14;;;6.19;100.00
19674;BME280;9986;50.610;7.230;2023-12-14T00:34:53;5448.73;;;6.19;100.00
19674;BME280;9986;50.610;7.230;2023-12-14T00:40:01;6262.74;;;6.20;100.00
19674;BME280;9986;50.610;7.230;2023-12-14T00:47:51;4960.88;;;6.22;100.00
19674;BME280;9986;50.610;7.230;2023-12-14T00:55:42;7566.36;;;6.24;100.00
19674;BME280;9986;50.610;7.230;2023-12-14T01:03:33;6914.90;;;6.24;100.00
19674;BME280;9986;50.610;7.230;2023-12-14T01:08:42;6752.53;;;6.27;100.00
19674;BME280;9986;50.610;7.230;2023-12-14T01:13:52;4147.46;;;6.23;100.00
19674;BME280;9986;50.610;7.230;2023-12-14T01:19:01;1545.86;;;6.30;100.00
19674;BME280;9986;50.610;7.230;2023-12-14T01:24:11;408.07;;;6.33;100.00
19674;BME280;9986;50.610;7.230;2023-12-14T01:37:22;-404.07;;;6.40;100.00
19674;BME280;9986;50.610;7.230;2023-12-14T01:45:18;408.88;;;6.42;100.00
19674;BME280;9986;50.610;7.230;2023-12-14T01:53:11;-241.02;;;6.47;100.00
19674;BME280;9986;50.610;7.230;2023-12-14T02:03:46;-8033.72;;;6.34;100.00
19674;BME280;9986;50.610;7.230;2023-12-14T02:11:36;-6899.15;;;6.50;100.00
19674;BME280;9986;50.610;7.230;2023-12-14T02:16:45;-6412.30;;;6.46;100.00
19674;BME280;9986;50.610;7.230;2023-12-14T02:21:56;-6736.93;;;6.50;100.00
19674;BME280;9986;50.610;7.230;2023-12-14T02:27:06;-6899.23;;;6.52;100.00
19674;BME280;9986;50.610;7.230;2023-12-14T02:32:16;-7061.60;;;6.56;100.00
19674;BME280;9986;50.610;7.230;2023-12-14T02:45:27;-6412.71;;;6.61;100.00
19674;BME280;9986;50.610;7.230;2023-12-14T02:56:01;-10955.47;;;6.79;100.00
19674;BME280;9986;50.610;7.230;2023-12-14T03:22:36;-5926.10;;;6.77;100.00
19674;BME280;9986;50.610;7.230;2023-12-14T03:30:27;-5601.43;;;6.82;100.00
19674;BME280;9986;50.610;7.230;2023-12-14T03:38:17;-5276.68;;;6.86;100.00
19674;BME280;9986;50.610;7.230;2023-12-14T03:46:07;-7225.07;;;6.87;100.00
19674;BME280;9986;50.610;7.230;2023-12-14T03:51:20;-8685.50;;;6.85;100.00
19674;BME280;9986;50.610;7.230;2023-12-14T03:59:10;-16144.84;;;7.11;100.00
19674;BME280;9986;50.610;7.230;2023-12-14T04:04:19;-17280.76;;;7.24;100.00
19674;BME280;9986;50.610;7.230;2023-12-14T04:14:50;-17278.11;;;7.11;100.00
19674;BME280;9986;50.610;7.230;2023-12-14T04:33:26;-16147.81;;;7.27;100.00
19674;BME280;9986;50.610;7.230;2023-12-14T04:38:35;-17607.92;;;7.39;100.00
19674;BME280;9986;50.610;7.230;2023-12-14T04:49:05;-17608.55;;;7.42;100.00
19674;BME280;9986;50.610;7.230;2023-12-14T04:56:54;-17123.87;;;7.48;100.00
19674;BME280;9986;50.610;7.230;2023-12-14T05:02:10;-16799.97;;;7.49;100.00
19674;BME280;9986;50.610;7.230;2023-12-14T05:23:30;-19877.99;;;7.54;100.00
19674;BME280;9986;50.610;7.230;2023-12-14T05:31:19;-20363.81;;;7.55;100.00
19674;BME280;9986;50.610;7.230;2023-12-14T05:41:48;-21173.61;;;7.58;100.00
19674;BME280;9986;50.610;7.230;2023-12-14T05:57:44;-18902.96;;;7.38;100.00
19674;BME280;9986;50.610;7.230;2023-12-14T06:03:00;-17122.36;;;7.41;100.00
19674;BME280;9986;50.610;7.230;2023-12-14T06:37:52;-10799.52;;;7.42;100.00
19674;BME280;9986;50.610;7.230;2023-12-14T06:51:08;-11771.16;;;7.25;100.00
19674;BME280;9986;50.610;7.230;2023-12-14T06:56:17;-10798.39;;;7.31;100.00
19674;BME280;9986;50.610;7.230;2023-12-14T07:14:59;-11284.49;;;7.25;100.00
19674;BME280;9986;50.610;7.230;2023-12-14T07:25:33;-12579.48;;;7.05;100.00
19674;BME280;9986;50.610;7.230;2023-12-14T07:52:36;-5764.02;;;6.96;100.00
19674;BME280;9986;50.610;7.230;2023-12-14T08:00:26;-5276.75;;;6.97;100.00
19674;BME280;9986;50.610;7.230;2023-12-14T08:10:57;-3489.50;;;6.93;100.00
19674;BME280;9986;50.610;7.230;2023-12-14T08:26:52;-5114.31;;;6.97;100.00
19674;BME280;9986;50.610;7.230;2023-12-14T08:32:08;-5276.78;;;7.00;100.00
19674;BME280;9986;50.610;7.230;2023-12-14T08:45:31;-5601.46;;;6.84;100.00
19674;BME280;9986;50.610;7.230;2023-12-14T08:50:40;-3977.21;;;6.79;100.00
19674;BME280;9986;50.610;7.230;2023-12-14T09:09:11;-563.81;;;6.79;100.00
19674;BME280;9986;50.610;7.230;2023-12-14T09:14:21;411.72;;;6.75;100.00
19674;BME280;9986;50.610;7.230;2023-12-14T09:19:31;1387.49;;;6.71;100.00
19674;BME280;9986;50.610;7.230;2023-12-14T09:27:22;4479.63;;;6.67;100.00
19674;BME280;9986;50.610;7.230;2023-12-14T09:35:17;7086.85;;;6.70;100.00
19674;BME280;9986;50.610;7.230;2023-12-14T09:40:27;9696.81;;;6.75;100.00
19674;BME280;9986;50.610;7.230;2023-12-14T09:59:09;11981.63;;;6.76;100.00
19674;BME280;9986;50.610;7.230;2023-12-14T10:12:20;23098.38;;;6.71;100.00
19674;BME280;9986;50.610;7.230;2023-12-14T10:17:42;23261.46;;;6.70;100.00
19674;BME280;9986;50.610;7.230;2023-12-14T10:33:37;18847.61;;;6.83;100.00
19674;BME280;9986;50.610;7.230;2023-12-14T10:44:11;12963.86;;;6.85;100.00
19674;BME280;9986;50.610;7.230;2023-12-14T10:49:21;10352.25;;;6.87;100.00
19674;BME280;9986;50.610;7.230;2023-12-14T10:54:38;12636.10;;;6.81;100.00
19674;BME280;9986;50.610;7.230;2023-12-14T10:59:51;16395.58;;;6.86;100.00
19674;BME280;9986;50.610;7.230;2023-12-14T11:05:02;20484.21;;;6.84;100.00
19674;BME280;9986;50.610;7.230;2023-12-14T11:07:45;16557.13;;;6.81;100.00
19674;BME280;9986;50.610;7.230;2023-12-14T11:21:07;22435.02;;;6.53;100.00
19674;BME280;9986;50.610;7.230;2023-12-14T11:37:08;19981.54;;;6.55;100.00
19674;BME280;9986;50.610;7.230;2023-12-14T11:50:29;26861.09;;;6.59;100.00
19674;BME280;9986;50.610;7.230;2023-12-14T11:55:40;25382.57;;;6.52;100.00
19674;BME280;9986;50.610;7.230;2023-12-14T12:01:11;24891.83;;;6.54;100.00
19674;BME280;9986;50.610;7.230;2023-12-14T12:09:04;24234.70;;;6.50;100.00
19674;BME280;9986;50.610;7.230;2023-12-14T12:16:58;24889.37;;;6.49;100.00
19674;BME280;9986;50.610;7.230;2023-12-14T12:27:34;33090.27;;;6.50;100.00
19674;BME280;9986;50.610;7.230;2023-12-14T12:48:51;58620.93;;;6.34;100.00
19674;BME280;9986;50.610;7.230;2023-12-14T12:54:01;55325.53;;;6.44;100.00
19674;BME280;9986;50.610;7.230;2023-12-14T13:15:21;66731.48;;;6.29;100.00
19674;BME280;9986;50.610;7.230;2023-12-14T13:23:12;69371.69;;;6.18;100.00
19674;BME280;9986;50.610;7.230;2023-12-14T13:28:22;67225.92;;;6.27;100.00
19674;BME280;9986;50.610;7.230;2023-12-14T13:38:59;72210.97;;;6.32;100.00
19674;BME280;9986;50.610;7.230;2023-12-14T13:44:12;74704.89;;;6.34;100.00
19674;BME280;9986;50.610;7.230;2023-12-14T13:49:28;78696.57;;;6.34;100.00
19674;BME280;9986;50.610;7.230;2023-12-14T14:00:16;89690.33;;;6.31;100.00
19674;BME280;9986;50.610;7.230;2023-12-14T14:05:27;96043.83;;;6.34;100.00
19674;BME280;9986;50.610;7.230;2023-12-14T14:13:23;115492.22;;;6.32;100.00
19674;BME280;9986;50.610;7.230;2023-12-14T14:21:13;132010.09;;;6.32;100.00
19674;BME280;9986;50.610;7.230;2023-12-14T14:29:02;144330.61;;;6.19;100.00
19674;BME280;9986;50.610;7.230;2023-12-14T14:34:12;136563.86;;;6.27;100.00
19674;BME280;9986;50.610;7.230;2023-12-14T14:39:21;127600.30;;;6.23;100.00
19674;BME280;9986;50.610;7.230;2023-12-14T14:49:56;144145.47;;;6.17;100.00
19674;BME280;9986;50.610;7.230;2023-12-14T14:55:08;144324.38;;;6.16;100.00
19674;BME280;9986;50.610;7.230;2023-12-14T15:00:19;144304.31;;;6.08;100.00
19674;BME280;9986;50.610;7.230;2023-12-14T15:05:28;140940.22;;;6.03;100.00
19674;BME280;9986;50.610;7.230;2023-12-14T15:10:39;130937.41;;;6.06;100.00
19674;BME280;9986;50.610;7.230;2023-12-14T15:15:49;121672.91;;;6.10;100.00
19674;BME280;9986;50.610;7.230;2023-12-14T15:23:39;121157.21;;;6.05;100.00
19674;BME280;9986;50.610;7.230;2023-12-14T15:28:50;117629.77;;;6.08;100.00
19674;BME280;9986;50.610;7.230;2023-12-14T15:42:01;137846.70;;;5.98;100.00
19674;BME280;9986;50.610;7.230;2023-12-14T15:55:10;144281.78;;;5.99;100.00
19674;BME280;9986;50.610;7.230;2023-12-14T16:00:21;144266.80;;;5.93;100.00
19674;BME280;9986;50.610;7.230;2023-12-14T16:08:16;144271.77;;;5.95;100.00
19674;BME280;9986;50.610;7.230;2023-12-14T16:13:26;144259.28;;;5.90;100.00
19674;BME280;9986;50.610;7.230;2023-12-14T16:24:18;144268.03;;;5.94;100.00
19674;BME280;9986;50.610;7.230;2023-12-14T16:29:33;144244.23;;;5.84;100.00
19674;BME280;9986;50.610;7.230;2023-12-14T16:34:45;144258.00;;;5.90;100.00
19674;BME280;9986;50.610;7.230;2023-12-14T16:45:20;144250.53;;;5.87;100.00
19674;BME280;9986;50.610;7.230;2023-12-14T16:53:16;144232.97;;;5.80;100.00
19674;BME280;9986;50.610;7.230;2023-12-14T17:09:13;144268.03;;;5.94;100.00
19674;BME280;9986;50.610;7.230;2023-12-14T17:19:54;144274.27;;;5.96;100.00
19674;BME280;9986;50.610;7.230;2023-12-14T17:27:46;144265.52;;;5.93;100.00
19674;BME280;9986;50.610;7.230;2023-12-14T17:38:17;144259.28;;;5.90;100.00
19674;BME280;9986;50.610;7.230;2023-12-14T17:49:00;143757.27;;;5.75;100.00
19674;BME280;9986;50.610;7.230;2023-12-14T18:18:22;144211.66;;;5.71;100.00
19674;BME280;9986;50.610;7.230;2023-12-14T18:28:58;144215.44;;;5.73;100.00
19674;BME280;9986;50.610;7.230;2023-12-14T18:36:55;144196.66;;;5.65;100.00
19674;BME280;9986;50.610;7.230;2023-12-14T18:42:13;144172.88;;;5.56;100.00
19674;BME280;9986;50.610;7.230;2023-12-14T18:58:12;144170.36;;;5.55;100.00
19674;BME280;9986;50.610;7.230;2023-12-14T19:08:47;144161.62;;;5.52;100.00
19674;BME280;9986;50.610;7.230;2023-12-14T19:13:57;144140.34;;;5.43;100.00
19674;BME280;9986;50.610;7.230;2023-12-14T19:21:46;144146.59;;;5.46;100.00
19674;BME280;9986;50.610;7.230;2023-12-14T19:26:57;144152.87;;;5.48;100.00
19674;BME280;9986;50.610;7.230;2023-12-14T19:42:50;144144.08;;;5.45;100.00
19674;BME280;9986;50.610;7.230;2023-12-14T19:48:00;144140.34;;;5.43;100.00
19674;BME280;9986;50.610;7.230;2023-12-14T19:53:09;144155.33;;;5.49;100.00
19674;BME280;9986;50.610;7.230;2023-12-14T20:03:45;144135.33;;;5.41;100.00
19674;BME280;9986;50.610;7.230;2023-12-14T20:09:00;144092.78;;;5.24;100.00
19674;BME280;9986;50.610;7.230;2023-12-14T20:22:24;143996.52;;;4.86;100.00
19674;BME280;9986;50.610;7.230;2023-12-14T20:27:34;139406.66;;;4.70;100.00
19674;BME280;9986;50.610;7.230;2023-12-14T20:32:46;126218.78;;;4.56;100.00
19674;BME280;9986;50.610;7.230;2023-12-14T20:40:43;113107.48;;;4.47;100.00
19674;BME280;9986;50.610;7.230;2023-12-14T20:45:52;107580.64;;;4.45;100.00
19674;BME280;9986;50.610;7.230;2023-12-14T20:53:40;86257.57;;;4.58;100.00
19674;BME280;9986;50.610;7.230;2023-12-14T21:01:38;82621.20;;;4.72;100.00
19674;BME280;9986;50.610;7.230;2023-12-14T21:20:16;76662.52;;;4.84;100.00
19674;BME280;9986;50.610;7.230;2023-12-14T21:41:32;74183.77;;;4.91;100.00
19674;BME280;9986;50.610;7.230;2023-12-14T21:46:41;69876.88;;;4.91;100.00
19674;BME280;9986;50.610;7.230;2023-12-14T21:51:51;73864.02;;;5.00;100.00
19674;BME280;9986;50.610;7.230;2023-12-14T21:57:01;85826.75;;;5.03;100.00
19674;BME280;9986;50.610;7.230;2023-12-14T22:02:10;79817.09;;;4.85;100.00
19674;BME280;9986;50.610;7.230;2023-12-14T22:12:39;67215.00;;;4.80;100.00
19674;BME280;9986;50.610;7.230;2023-12-14T22:17:50;72682.41;;;4.83;100.00
19674;BME280;9986;50.610;7.230;2023-12-14T22:23:05;77988.44;;;4.83;100.00
19674;BME280;9986;50.610;7.230;2023-12-14T22:28:15;87136.54;;;4.89;100.00
19674;BME280;9986;50.610;7.230;2023-12-14T22:33:24;85803.35;;;4.88;100.00
19674;BME280;9986;50.610;7.230;2023-12-14T22:43:55;76160.20;;;4.81;100.00
19674;BME280;9986;50.610;7.230;2023-12-14T22:51:45;81313.91;;;4.87;100.00
19674;BME280;9986;50.610;7.230;2023-12-14T22:56:54;84636.98;;;4.86;100.00
19674;BME280;9986;50.610;7.230;2023-12-14T23:04:44;90305.92;;;4.93;100.00
19674;BME280;9986;50.610;7.230;2023-12-14T23:09:53;93975.55;;;4.95;100.00
19674;BME280;9986;50.610;7.230;2023-12-14T23:17:50;94476.63;;;4.96;100.00
19674;BME280;9986;50.610;7.230;2023-12-14T23:28:22;97812.80;;;4.95;100.00
19674;BME280;9986;50.610;7.230;2023-12-14T23:44:16;88815.77;;;4.99;100.00
